sensor_id;sensor_type;location;lat;lon;timestamp;temperature;humidity
2913;DHT22;1466;48.778;9.166;2023-07-20T00:01:15;23.40;72.80
2913;DHT22;1466;48.778;9.166;2023-07-20T00:03:40;23.40;72.50
2913;DHT22;1466;48.778;9.166;2023-07-20T00:06:06;23.40;71.60
2913;DHT22;1466;48.778;9.166;2023-07-20T00:08:32;23.40;71.10
2913;DHT22;1466;48.778;9.166;2023-07-20T00:10:57;23.40;70.60
2913;DHT22;1466;48.778;9.166;2023-07-20T00:13:24;23.30;70.40
2913;DHT22;1466;48.778;9.166;2023-07-20T00:15:50;23.30;70.10
2913;DHT22;1466;48.778;9.166;2023-07-20T00:18:16;23.20;69.80
2913;DHT22;1466;48.778;9.166;2023-07-20T00:20:42;23.20;69.50
2913;DHT22;1466;48.778;9.166;2023-07-20T00:23:07;23.10;68.90
2913;DHT22;1466;48.778;9.166;2023-07-20T00:25:33;23.00;68.80
2913;DHT22;1466;48.778;9.166;2023-07-20T00:27:59;22.90;68.70
2913;DHT22;1466;48.778;9.166;2023-07-20T00:30:25;22.90;68.70
2913;DHT22;1466;48.778;9.166;2023-07-20T00:32:50;22.90;68.60
2913;DHT22;1466;48.778;9.166;2023-07-20T00:35:16;22.80;68.40
2913;DHT22;1466;48.778;9.166;2023-07-20T00:37:42;22.80;68.60
2913;DHT22;1466;48.778;9.166;2023-07-20T00:40:07;22.80;68.50
2913;DHT22;1466;48.778;9.166;2023-07-20T00:42:33;22.70;68.50
2913;DHT22;1466;48.778;9.166;2023-07-20T00:44:59;22.70;68.70
2913;DHT22;1466;48.778;9.166;2023-07-20T00:47:27;22.60;68.50
2913;DHT22;1466;48.778;9.166;2023-07-20T00:49:53;22.70;68.70
2913;DHT22;1466;48.778;9.166;2023-07-20T00:52:21;22.70;68.70
2913;DHT22;1466;48.778;9.166;2023-07-20T00:54:48;22.70;68.60
2913;DHT22;1466;48.778;9.166;2023-07-20T00:57:15;22.70;68.70
2913;DHT22;1466;48.778;9.166;2023-07-20T00:59:41;22.60;68.80
2913;DHT22;1466;48.778;9.166;2023-07-20T01:02:07;22.70;69.10
2913;DHT22;1466;48.778;9.166;2023-07-20T01:04:35;22.70;69.10
2913;DHT22;1466;48.778;9.166;2023-07-20T01:09:50;22.60;69.20
2913;DHT22;1466;48.778;9.166;2023-07-20T01:12:30;22.70;69.30
2913;DHT22;1466;48.778;9.166;2023-07-20T01:14:58;22.60;69.40
2913;DHT22;1466;48.778;9.166;2023-07-20T01:17:24;22.60;69.40
2913;DHT22;1466;48.778;9.166;2023-07-20T01:19:49;22.60;69.50
2913;DHT22;1466;48.778;9.166;2023-07-20T01:33:49;22.40;70.30
2913;DHT22;1466;48.778;9.166;2023-07-20T01:36:17;22.30;70.50
2913;DHT22;1466;48.778;9.166;2023-07-20T01:38:43;22.30;70.70
2913;DHT22;1466;48.778;9.166;2023-07-20T01:41:10;22.30;70.90
2913;DHT22;1466;48.778;9.166;2023-07-20T01:43:36;22.10;71.10
2913;DHT22;1466;48.778;9.166;2023-07-20T01:46:02;22.10;71.40
2913;DHT22;1466;48.778;9.166;2023-07-20T01:48:27;22.10;71.60
2913;DHT22;1466;48.778;9.166;2023-07-20T01:50:53;22.10;71.90
2913;DHT22;1466;48.778;9.166;2023-07-20T01:53:20;22.00;71.90
2913;DHT22;1466;48.778;9.166;2023-07-20T01:55:45;22.00;72.10
2913;DHT22;1466;48.778;9.166;2023-07-20T01:58:11;21.90;72.20
2913;DHT22;1466;48.778;9.166;2023-07-20T02:00:37;21.90;72.60
2913;DHT22;1466;48.778;9.166;2023-07-20T02:03:03;21.90;72.90
2913;DHT22;1466;48.778;9.166;2023-07-20T02:05:28;21.80;72.90
2913;DHT22;1466;48.778;9.166;2023-07-20T02:07:54;21.70;73.10
2913;DHT22;1466;48.778;9.166;2023-07-20T02:10:19;21.70;73.50
2913;DHT22;1466;48.778;9.166;2023-07-20T02:12:45;21.60;73.60
2913;DHT22;1466;48.778;9.166;2023-07-20T02:15:11;21.60;73.80
2913;DHT22;1466;48.778;9.166;2023-07-20T02:17:39;21.60;73.80
2913;DHT22;1466;48.778;9.166;2023-07-20T02:20:07;21.60;73.80
2913;DHT22;1466;48.778;9.166;2023-07-20T02:22:34;21.60;73.70
2913;DHT22;1466;48.778;9.166;2023-07-20T02:25:00;21.60;74.00
2913;DHT22;1466;48.778;9.166;2023-07-20T02:27:25;21.50;74.00
2913;DHT22;1466;48.778;9.166;2023-07-20T02:29:51;21.50;74.10
2913;DHT22;1466;48.778;9.166;2023-07-20T02:32:16;21.50;74.20
2913;DHT22;1466;48.778;9.166;2023-07-20T02:34:42;21.50;74.30
2913;DHT22;1466;48.778;9.166;2023-07-20T02:37:07;21.50;74.30
2913;DHT22;1466;48.778;9.166;2023-07-20T02:39:33;21.50;74.50
2913;DHT22;1466;48.778;9.166;2023-07-20T02:41:59;21.40;74.60
2913;DHT22;1466;48.778;9.166;2023-07-20T02:44:24;21.40;74.80
2913;DHT22;1466;48.778;9.166;2023-07-20T02:46:50;21.40;75.00
2913;DHT22;1466;48.778;9.166;2023-07-20T02:49:16;21.40;75.20
2913;DHT22;1466;48.778;9.166;2023-07-20T02:51:42;21.40;75.30
2913;DHT22;1466;48.778;9.166;2023-07-20T02:54:07;21.40;75.30
2913;DHT22;1466;48.778;9.166;2023-07-20T02:56:33;21.40;75.50
2913;DHT22;1466;48.778;9.166;2023-07-20T02:59:00;21.30;75.50
2913;DHT22;1466;48.778;9.166;2023-07-20T03:01:26;21.30;75.60
2913;DHT22;1466;48.778;9.166;2023-07-20T03:03:55;21.30;75.50
2913;DHT22;1466;48.778;9.166;2023-07-20T03:06:20;21.30;75.70
2913;DHT22;1466;48.778;9.166;2023-07-20T03:08:46;21.30;75.80
2913;DHT22;1466;48.778;9.166;2023-07-20T03:11:14;21.20;75.90
2913;DHT22;1466;48.778;9.166;2023-07-20T03:13:41;21.20;76.10
2913;DHT22;1466;48.778;9.166;2023-07-20T03:16:08;21.20;76.20
2913;DHT22;1466;48.778;9.166;2023-07-20T03:18:39;21.10;76.20
2913;DHT22;1466;48.778;9.166;2023-07-20T03:21:06;21.10;76.40
2913;DHT22;1466;48.778;9.166;2023-07-20T03:23:31;21.10;76.40
2913;DHT22;1466;48.778;9.166;2023-07-20T03:25:57;21.10;76.50
2913;DHT22;1466;48.778;9.166;2023-07-20T03:28:23;21.10;76.50
2913;DHT22;1466;48.778;9.166;2023-07-20T03:30:57;21.00;76.80
2913;DHT22;1466;48.778;9.166;2023-07-20T03:33:27;21.10;76.90
2913;DHT22;1466;48.778;9.166;2023-07-20T03:35:54;21.10;77.00
2913;DHT22;1466;48.778;9.166;2023-07-20T03:38:20;21.10;77.00
2913;DHT22;1466;48.778;9.166;2023-07-20T03:40:52;21.10;77.00
2913;DHT22;1466;48.778;9.166;2023-07-20T03:43:18;21.10;77.10
2913;DHT22;1466;48.778;9.166;2023-07-20T03:45:44;21.00;77.10
2913;DHT22;1466;48.778;9.166;2023-07-20T03:48:11;21.00;77.30
2913;DHT22;1466;48.778;9.166;2023-07-20T03:50:37;20.90;77.40
2913;DHT22;1466;48.778;9.166;2023-07-20T03:53:02;20.90;77.60
2913;DHT22;1466;48.778;9.166;2023-07-20T03:55:28;20.90;77.80
2913;DHT22;1466;48.778;9.166;2023-07-20T03:57:53;20.90;78.60
2913;DHT22;1466;48.778;9.166;2023-07-20T04:00:19;20.90;77.90
2913;DHT22;1466;48.778;9.166;2023-07-20T04:02:45;20.90;77.90
2913;DHT22;1466;48.778;9.166;2023-07-20T04:05:11;20.90;77.90
2913;DHT22;1466;48.778;9.166;2023-07-20T04:07:36;20.80;78.00
2913;DHT22;1466;48.778;9.166;2023-07-20T04:10:02;20.70;78.30
2913;DHT22;1466;48.778;9.166;2023-07-20T04:12:28;20.80;78.60
2913;DHT22;1466;48.778;9.166;2023-07-20T04:14:53;20.80;78.60
2913;DHT22;1466;48.778;9.166;2023-07-20T04:17:19;20.80;78.70
2913;DHT22;1466;48.778;9.166;2023-07-20T04:19:44;20.90;78.70
2913;DHT22;1466;48.778;9.166;2023-07-20T04:22:10;21.00;78.70
2913;DHT22;1466;48.778;9.166;2023-07-20T04:24:36;21.00;78.50
2913;DHT22;1466;48.778;9.166;2023-07-20T04:27:02;21.10;78.40
2913;DHT22;1466;48.778;9.166;2023-07-20T04:29:29;21.20;78.40
2913;DHT22;1466;48.778;9.166;2023-07-20T04:31:55;21.20;78.30
2913;DHT22;1466;48.778;9.166;2023-07-20T04:34:21;21.10;78.30
2913;DHT22;1466;48.778;9.166;2023-07-20T04:36:47;21.10;78.40
2913;DHT22;1466;48.778;9.166;2023-07-20T04:39:13;21.20;78.60
2913;DHT22;1466;48.778;9.166;2023-07-20T04:41:39;21.20;78.40
2913;DHT22;1466;48.778;9.166;2023-07-20T04:44:04;21.30;78.60
2913;DHT22;1466;48.778;9.166;2023-07-20T04:46:30;21.40;78.60
2913;DHT22;1466;48.778;9.166;2023-07-20T04:48:56;21.50;78.60
2913;DHT22;1466;48.778;9.166;2023-07-20T04:51:21;21.50;78.40
2913;DHT22;1466;48.778;9.166;2023-07-20T04:53:47;21.50;78.50
2913;DHT22;1466;48.778;9.166;2023-07-20T04:56:14;21.40;78.40
2913;DHT22;1466;48.778;9.166;2023-07-20T04:58:40;21.40;78.50
2913;DHT22;1466;48.778;9.166;2023-07-20T05:01:05;21.40;78.60
2913;DHT22;1466;48.778;9.166;2023-07-20T05:03:31;21.50;78.70
2913;DHT22;1466;48.778;9.166;2023-07-20T05:05:57;21.50;78.70
2913;DHT22;1466;48.778;9.166;2023-07-20T05:08:23;21.60;78.80
2913;DHT22;1466;48.778;9.166;2023-07-20T05:10:48;21.60;78.50
2913;DHT22;1466;48.778;9.166;2023-07-20T05:13:15;21.60;78.50
2913;DHT22;1466;48.778;9.166;2023-07-20T05:15:40;21.70;78.30
2913;DHT22;1466;48.778;9.166;2023-07-20T05:18:06;21.80;78.20
2913;DHT22;1466;48.778;9.166;2023-07-20T05:20:31;21.90;78.00
2913;DHT22;1466;48.778;9.166;2023-07-20T05:22:59;21.90;78.10
2913;DHT22;1466;48.778;9.166;2023-07-20T05:25:24;21.90;78.00
2913;DHT22;1466;48.778;9.166;2023-07-20T05:27:50;21.90;78.10
2913;DHT22;1466;48.778;9.166;2023-07-20T05:30:16;21.90;78.20
2913;DHT22;1466;48.778;9.166;2023-07-20T05:32:41;21.80;78.40
2913;DHT22;1466;48.778;9.166;2023-07-20T05:35:07;21.90;78.60
2913;DHT22;1466;48.778;9.166;2023-07-20T05:37:34;22.00;78.40
2913;DHT22;1466;48.778;9.166;2023-07-20T05:39:59;22.00;78.30
2913;DHT22;1466;48.778;9.166;2023-07-20T05:42:25;22.10;78.40
2913;DHT22;1466;48.778;9.166;2023-07-20T05:44:51;22.10;78.40
2913;DHT22;1466;48.778;9.166;2023-07-20T05:47:18;22.10;78.30
2913;DHT22;1466;48.778;9.166;2023-07-20T05:49:43;22.10;78.30
2913;DHT22;1466;48.778;9.166;2023-07-20T05:52:09;22.20;78.30
2913;DHT22;1466;48.778;9.166;2023-07-20T05:54:35;22.20;78.10
2913;DHT22;1466;48.778;9.166;2023-07-20T05:57:00;22.20;78.00
2913;DHT22;1466;48.778;9.166;2023-07-20T05:59:27;22.20;78.10
2913;DHT22;1466;48.778;9.166;2023-07-20T06:01:54;22.20;78.40
2913;DHT22;1466;48.778;9.166;2023-07-20T06:04:20;22.20;78.50
2913;DHT22;1466;48.778;9.166;2023-07-20T06:06:45;22.20;78.50
2913;DHT22;1466;48.778;9.166;2023-07-20T06:09:12;22.30;78.60
2913;DHT22;1466;48.778;9.166;2023-07-20T06:11:40;22.30;78.60
2913;DHT22;1466;48.778;9.166;2023-07-20T06:14:06;22.40;78.50
2913;DHT22;1466;48.778;9.166;2023-07-20T06:16:32;22.40;78.60
2913;DHT22;1466;48.778;9.166;2023-07-20T06:18:59;22.50;78.60
2913;DHT22;1466;48.778;9.166;2023-07-20T06:21:25;22.50;78.70
2913;DHT22;1466;48.778;9.166;2023-07-20T06:23:50;22.50;78.80
2913;DHT22;1466;48.778;9.166;2023-07-20T06:26:16;22.50;78.80
2913;DHT22;1466;48.778;9.166;2023-07-20T06:28:41;22.50;78.90
2913;DHT22;1466;48.778;9.166;2023-07-20T06:31:07;22.50;78.90
2913;DHT22;1466;48.778;9.166;2023-07-20T06:33:33;22.60;79.10
2913;DHT22;1466;48.778;9.166;2023-07-20T06:36:00;22.50;79.10
2913;DHT22;1466;48.778;9.166;2023-07-20T06:38:25;22.50;79.30
2913;DHT22;1466;48.778;9.166;2023-07-20T06:40:51;22.50;79.20
2913;DHT22;1466;48.778;9.166;2023-07-20T06:43:16;22.60;79.40
2913;DHT22;1466;48.778;9.166;2023-07-20T06:45:42;22.60;79.30
2913;DHT22;1466;48.778;9.166;2023-07-20T06:48:08;22.70;79.40
2913;DHT22;1466;48.778;9.166;2023-07-20T06:50:33;22.70;79.50
2913;DHT22;1466;48.778;9.166;2023-07-20T06:52:59;22.80;79.60
2913;DHT22;1466;48.778;9.166;2023-07-20T06:55:26;22.80;79.50
2913;DHT22;1466;48.778;9.166;2023-07-20T06:57:51;22.80;79.70
2913;DHT22;1466;48.778;9.166;2023-07-20T07:00:17;22.90;79.70
2913;DHT22;1466;48.778;9.166;2023-07-20T07:02:43;22.90;79.60
2913;DHT22;1466;48.778;9.166;2023-07-20T07:05:09;22.90;79.50
2913;DHT22;1466;48.778;9.166;2023-07-20T07:07:34;22.90;79.70
2913;DHT22;1466;48.778;9.166;2023-07-20T07:10:01;22.80;79.70
2913;DHT22;1466;48.778;9.166;2023-07-20T07:12:30;22.90;79.90
2913;DHT22;1466;48.778;9.166;2023-07-20T07:14:55;22.90;79.80
2913;DHT22;1466;48.778;9.166;2023-07-20T07:17:21;22.90;79.60
2913;DHT22;1466;48.778;9.166;2023-07-20T07:19:46;22.90;79.50
2913;DHT22;1466;48.778;9.166;2023-07-20T07:22:12;22.80;79.80
2913;DHT22;1466;48.778;9.166;2023-07-20T07:24:39;22.80;79.80
2913;DHT22;1466;48.778;9.166;2023-07-20T07:27:08;22.80;80.00
2913;DHT22;1466;48.778;9.166;2023-07-20T07:29:34;22.80;79.90
2913;DHT22;1466;48.778;9.166;2023-07-20T07:31:59;22.90;79.60
2913;DHT22;1466;48.778;9.166;2023-07-20T07:34:25;23.00;79.30
2913;DHT22;1466;48.778;9.166;2023-07-20T07:36:51;23.10;79.10
2913;DHT22;1466;48.778;9.166;2023-07-20T07:39:20;23.20;79.00
2913;DHT22;1466;48.778;9.166;2023-07-20T07:41:45;23.40;78.50
2913;DHT22;1466;48.778;9.166;2023-07-20T07:44:11;23.50;78.20
2913;DHT22;1466;48.778;9.166;2023-07-20T07:46:37;23.50;77.90
2913;DHT22;1466;48.778;9.166;2023-07-20T07:49:02;23.50;77.70
2913;DHT22;1466;48.778;9.166;2023-07-20T07:51:28;23.50;77.70
2913;DHT22;1466;48.778;9.166;2023-07-20T07:53:54;23.60;77.60
2913;DHT22;1466;48.778;9.166;2023-07-20T07:56:19;23.80;77.20
2913;DHT22;1466;48.778;9.166;2023-07-20T07:58:51;24.00;76.80
2913;DHT22;1466;48.778;9.166;2023-07-20T08:01:19;24.00;76.20
2913;DHT22;1466;48.778;9.166;2023-07-20T08:03:45;24.20;76.00
2913;DHT22;1466;48.778;9.166;2023-07-20T08:06:15;24.20;75.70
2913;DHT22;1466;48.778;9.166;2023-07-20T08:08:41;24.30;75.20
2913;DHT22;1466;48.778;9.166;2023-07-20T08:11:08;24.30;73.80
2913;DHT22;1466;48.778;9.166;2023-07-20T08:13:34;24.40;73.70
2913;DHT22;1466;48.778;9.166;2023-07-20T08:16:00;24.40;73.20
2913;DHT22;1466;48.778;9.166;2023-07-20T08:18:28;24.40;73.40
2913;DHT22;1466;48.778;9.166;2023-07-20T08:20:53;24.50;73.10
2913;DHT22;1466;48.778;9.166;2023-07-20T08:23:19;24.50;72.50
2913;DHT22;1466;48.778;9.166;2023-07-20T08:25:45;24.50;72.20
2913;DHT22;1466;48.778;9.166;2023-07-20T08:28:13;24.60;72.20
2913;DHT22;1466;48.778;9.166;2023-07-20T08:30:43;24.70;72.10
2913;DHT22;1466;48.778;9.166;2023-07-20T08:33:10;24.70;72.10
2913;DHT22;1466;48.778;9.166;2023-07-20T08:35:36;24.60;71.60
2913;DHT22;1466;48.778;9.166;2023-07-20T08:38:02;24.40;72.10
2913;DHT22;1466;48.778;9.166;2023-07-20T08:40:33;24.20;72.60
2913;DHT22;1466;48.778;9.166;2023-07-20T08:42:59;24.10;73.70
2913;DHT22;1466;48.778;9.166;2023-07-20T08:45:28;24.00;74.00
2913;DHT22;1466;48.778;9.166;2023-07-20T08:47:58;24.20;73.90
2913;DHT22;1466;48.778;9.166;2023-07-20T08:50:26;24.40;72.00
2913;DHT22;1466;48.778;9.166;2023-07-20T08:52:53;24.50;71.20
2913;DHT22;1466;48.778;9.166;2023-07-20T08:55:23;24.70;70.80
2913;DHT22;1466;48.778;9.166;2023-07-20T08:57:55;24.70;70.80
2913;DHT22;1466;48.778;9.166;2023-07-20T09:00:21;24.70;70.60
2913;DHT22;1466;48.778;9.166;2023-07-20T09:02:52;24.90;69.90
2913;DHT22;1466;48.778;9.166;2023-07-20T09:05:19;25.00;69.00
2913;DHT22;1466;48.778;9.166;2023-07-20T09:07:45;25.10;68.90
2913;DHT22;1466;48.778;9.166;2023-07-20T09:10:11;25.10;68.60
2913;DHT22;1466;48.778;9.166;2023-07-20T09:12:46;24.90;68.40
2913;DHT22;1466;48.778;9.166;2023-07-20T09:15:12;24.90;68.60
2913;DHT22;1466;48.778;9.166;2023-07-20T09:17:38;24.70;68.90
2913;DHT22;1466;48.778;9.166;2023-07-20T09:20:05;24.60;69.20
2913;DHT22;1466;48.778;9.166;2023-07-20T09:22:38;24.50;70.00
2913;DHT22;1466;48.778;9.166;2023-07-20T09:25:17;24.70;69.30
2913;DHT22;1466;48.778;9.166;2023-07-20T09:27:45;25.10;68.70
2913;DHT22;1466;48.778;9.166;2023-07-20T09:30:13;25.30;67.90
2913;DHT22;1466;48.778;9.166;2023-07-20T09:32:49;25.40;67.30
2913;DHT22;1466;48.778;9.166;2023-07-20T09:35:20;25.30;66.90
2913;DHT22;1466;48.778;9.166;2023-07-20T09:37:50;24.90;67.80
2913;DHT22;1466;48.778;9.166;2023-07-20T09:40:20;24.70;68.10
2913;DHT22;1466;48.778;9.166;2023-07-20T09:42:46;24.50;68.30
2913;DHT22;1466;48.778;9.166;2023-07-20T09:45:12;24.70;67.90
2913;DHT22;1466;48.778;9.166;2023-07-20T09:47:38;25.20;67.00
2913;DHT22;1466;48.778;9.166;2023-07-20T09:50:05;26.20;65.20
2913;DHT22;1466;48.778;9.166;2023-07-20T09:52:38;27.30;63.30
2913;DHT22;1466;48.778;9.166;2023-07-20T09:55:06;28.00;61.30
2913;DHT22;1466;48.778;9.166;2023-07-20T09:57:33;27.70;58.60
2913;DHT22;1466;48.778;9.166;2023-07-20T10:00:03;27.20;59.20
2913;DHT22;1466;48.778;9.166;2023-07-20T10:02:34;26.70;59.90
2913;DHT22;1466;48.778;9.166;2023-07-20T10:05:03;26.70;60.40
2913;DHT22;1466;48.778;9.166;2023-07-20T10:07:34;26.40;61.40
2913;DHT22;1466;48.778;9.166;2023-07-20T10:10:02;26.20;61.80
2913;DHT22;1466;48.778;9.166;2023-07-20T10:12:29;26.20;62.00
2913;DHT22;1466;48.778;9.166;2023-07-20T10:15:24;26.30;62.00
2913;DHT22;1466;48.778;9.166;2023-07-20T10:18:10;26.60;61.60
2913;DHT22;1466;48.778;9.166;2023-07-20T10:20:39;26.70;59.50
2913;DHT22;1466;48.778;9.166;2023-07-20T10:23:07;26.20;59.40
2913;DHT22;1466;48.778;9.166;2023-07-20T10:25:33;26.00;59.90
2913;DHT22;1466;48.778;9.166;2023-07-20T10:28:05;25.80;60.30
2913;DHT22;1466;48.778;9.166;2023-07-20T10:30:31;25.80;60.00
2913;DHT22;1466;48.778;9.166;2023-07-20T10:32:57;25.90;60.00
2913;DHT22;1466;48.778;9.166;2023-07-20T10:35:23;25.90;59.40
2913;DHT22;1466;48.778;9.166;2023-07-20T10:37:50;25.90;59.60
2913;DHT22;1466;48.778;9.166;2023-07-20T10:40:31;26.00;59.80
2913;DHT22;1466;48.778;9.166;2023-07-20T10:43:03;26.10;59.90
2913;DHT22;1466;48.778;9.166;2023-07-20T10:48:06;26.30;59.80
2913;DHT22;1466;48.778;9.166;2023-07-20T10:50:35;26.30;58.90
2913;DHT22;1466;48.778;9.166;2023-07-20T10:53:15;26.30;58.40
2913;DHT22;1466;48.778;9.166;2023-07-20T10:55:41;26.30;58.30
2913;DHT22;1466;48.778;9.166;2023-07-20T10:58:14;26.30;58.30
2913;DHT22;1466;48.778;9.166;2023-07-20T11:01:02;26.20;58.20
2913;DHT22;1466;48.778;9.166;2023-07-20T11:03:38;26.30;57.90
2913;DHT22;1466;48.778;9.166;2023-07-20T11:09:04;26.70;57.40
2913;DHT22;1466;48.778;9.166;2023-07-20T11:11:32;26.90;56.70
2913;DHT22;1466;48.778;9.166;2023-07-20T11:13:59;26.80;56.60
2913;DHT22;1466;48.778;9.166;2023-07-20T11:16:36;26.50;57.00
2913;DHT22;1466;48.778;9.166;2023-07-20T11:19:03;26.10;56.40
2913;DHT22;1466;48.778;9.166;2023-07-20T11:21:35;26.30;56.50
2913;DHT22;1466;48.778;9.166;2023-07-20T11:24:03;26.40;56.10
2913;DHT22;1466;48.778;9.166;2023-07-20T11:26:29;26.50;56.70
2913;DHT22;1466;48.778;9.166;2023-07-20T11:28:55;26.50;55.80
2913;DHT22;1466;48.778;9.166;2023-07-20T11:31:20;26.50;55.60
2913;DHT22;1466;48.778;9.166;2023-07-20T11:33:46;26.50;56.30
2913;DHT22;1466;48.778;9.166;2023-07-20T11:36:12;26.40;56.00
2913;DHT22;1466;48.778;9.166;2023-07-20T11:38:41;26.30;56.20
2913;DHT22;1466;48.778;9.166;2023-07-20T11:41:08;26.30;56.40
2913;DHT22;1466;48.778;9.166;2023-07-20T11:43:34;26.30;56.40
2913;DHT22;1466;48.778;9.166;2023-07-20T11:46:04;26.30;56.60
2913;DHT22;1466;48.778;9.166;2023-07-20T11:48:30;26.20;56.60
2913;DHT22;1466;48.778;9.166;2023-07-20T11:50:56;26.30;56.10
2913;DHT22;1466;48.778;9.166;2023-07-20T11:53:21;26.30;56.00
2913;DHT22;1466;48.778;9.166;2023-07-20T11:55:47;26.20;55.90
2913;DHT22;1466;48.778;9.166;2023-07-20T11:58:13;26.30;56.20
2913;DHT22;1466;48.778;9.166;2023-07-20T12:00:44;26.60;56.10
2913;DHT22;1466;48.778;9.166;2023-07-20T12:03:10;26.90;55.10
2913;DHT22;1466;48.778;9.166;2023-07-20T12:05:40;27.20;54.50
2913;DHT22;1466;48.778;9.166;2023-07-20T12:08:06;27.60;53.40
2913;DHT22;1466;48.778;9.166;2023-07-20T12:10:31;28.00;52.30
2913;DHT22;1466;48.778;9.166;2023-07-20T12:13:03;27.80;51.90
2913;DHT22;1466;48.778;9.166;2023-07-20T12:15:29;27.40;52.10
2913;DHT22;1466;48.778;9.166;2023-07-20T12:18:02;26.90;52.40
2913;DHT22;1466;48.778;9.166;2023-07-20T12:20:38;26.50;53.10
2913;DHT22;1466;48.778;9.166;2023-07-20T12:23:14;26.20;53.50
2913;DHT22;1466;48.778;9.166;2023-07-20T12:25:44;26.10;53.80
2913;DHT22;1466;48.778;9.166;2023-07-20T12:28:12;26.20;54.00
2913;DHT22;1466;48.778;9.166;2023-07-20T12:30:39;26.30;54.10
2913;DHT22;1466;48.778;9.166;2023-07-20T12:33:05;26.30;54.20
2913;DHT22;1466;48.778;9.166;2023-07-20T12:35:32;26.30;54.60
2913;DHT22;1466;48.778;9.166;2023-07-20T12:37:58;26.40;55.10
2913;DHT22;1466;48.778;9.166;2023-07-20T12:40:24;26.50;55.20
2913;DHT22;1466;48.778;9.166;2023-07-20T12:42:49;26.50;55.20
2913;DHT22;1466;48.778;9.166;2023-07-20T12:45:15;26.30;55.00
2913;DHT22;1466;48.778;9.166;2023-07-20T12:47:41;26.20;55.20
2913;DHT22;1466;48.778;9.166;2023-07-20T12:50:09;26.20;55.40
2913;DHT22;1466;48.778;9.166;2023-07-20T12:52:39;26.30;55.40
2913;DHT22;1466;48.778;9.166;2023-07-20T12:55:06;26.40;55.10
2913;DHT22;1466;48.778;9.166;2023-07-20T12:57:34;26.30;54.80
2913;DHT22;1466;48.778;9.166;2023-07-20T13:00:00;26.20;54.50
2913;DHT22;1466;48.778;9.166;2023-07-20T13:02:27;26.00;54.40
2913;DHT22;1466;48.778;9.166;2023-07-20T13:04:52;26.10;54.50
2913;DHT22;1466;48.778;9.166;2023-07-20T13:07:30;26.30;54.40
2913;DHT22;1466;48.778;9.166;2023-07-20T13:09:56;26.50;54.10
2913;DHT22;1466;48.778;9.166;2023-07-20T13:12:21;26.70;53.90
2913;DHT22;1466;48.778;9.166;2023-07-20T13:14:47;26.90;53.60
2913;DHT22;1466;48.778;9.166;2023-07-20T13:17:13;27.10;53.50
2913;DHT22;1466;48.778;9.166;2023-07-20T13:19:38;27.20;53.20
2913;DHT22;1466;48.778;9.166;2023-07-20T13:22:04;27.20;52.90
2913;DHT22;1466;48.778;9.166;2023-07-20T13:24:30;27.10;53.00
2913;DHT22;1466;48.778;9.166;2023-07-20T13:26:55;27.10;52.90
2913;DHT22;1466;48.778;9.166;2023-07-20T13:29:21;27.20;52.90
2913;DHT22;1466;48.778;9.166;2023-07-20T13:31:46;27.00;52.70
2913;DHT22;1466;48.778;9.166;2023-07-20T13:34:12;26.80;52.60
2913;DHT22;1466;48.778;9.166;2023-07-20T13:36:37;26.80;52.70
2913;DHT22;1466;48.778;9.166;2023-07-20T13:39:03;26.80;52.60
2913;DHT22;1466;48.778;9.166;2023-07-20T13:41:30;26.80;52.10
2913;DHT22;1466;48.778;9.166;2023-07-20T13:43:57;26.70;52.20
2913;DHT22;1466;48.778;9.166;2023-07-20T13:46:23;26.70;52.00
2913;DHT22;1466;48.778;9.166;2023-07-20T13:48:48;26.70;52.20
2913;DHT22;1466;48.778;9.166;2023-07-20T13:51:14;26.80;52.00
2913;DHT22;1466;48.778;9.166;2023-07-20T13:53:40;26.90;52.20
2913;DHT22;1466;48.778;9.166;2023-07-20T13:56:06;26.90;52.20
2913;DHT22;1466;48.778;9.166;2023-07-20T13:58:32;26.90;52.10
2913;DHT22;1466;48.778;9.166;2023-07-20T14:00:58;26.90;52.00
2913;DHT22;1466;48.778;9.166;2023-07-20T14:03:24;26.90;52.10
2913;DHT22;1466;48.778;9.166;2023-07-20T14:05:50;26.90;52.00
2913;DHT22;1466;48.778;9.166;2023-07-20T14:08:16;26.90;52.50
2913;DHT22;1466;48.778;9.166;2023-07-20T14:10:41;27.00;51.90
2913;DHT22;1466;48.778;9.166;2023-07-20T14:13:07;27.10;51.80
2913;DHT22;1466;48.778;9.166;2023-07-20T14:15:35;27.00;51.80
2913;DHT22;1466;48.778;9.166;2023-07-20T14:18:00;27.00;51.60
2913;DHT22;1466;48.778;9.166;2023-07-20T14:20:26;27.00;51.30
2913;DHT22;1466;48.778;9.166;2023-07-20T14:22:51;27.00;51.20
2913;DHT22;1466;48.778;9.166;2023-07-20T14:25:17;27.00;51.10
2913;DHT22;1466;48.778;9.166;2023-07-20T14:27:42;27.00;51.10
2913;DHT22;1466;48.778;9.166;2023-07-20T14:30:08;27.00;51.70
2913;DHT22;1466;48.778;9.166;2023-07-20T14:32:34;27.20;51.10
2913;DHT22;1466;48.778;9.166;2023-07-20T14:35:00;27.30;51.10
2913;DHT22;1466;48.778;9.166;2023-07-20T14:37:25;27.30;50.90
2913;DHT22;1466;48.778;9.166;2023-07-20T14:39:51;27.20;51.40
2913;DHT22;1466;48.778;9.166;2023-07-20T14:42:16;27.10;50.30
2913;DHT22;1466;48.778;9.166;2023-07-20T14:44:43;27.00;50.50
2913;DHT22;1466;48.778;9.166;2023-07-20T14:47:08;27.00;50.70
2913;DHT22;1466;48.778;9.166;2023-07-20T14:49:34;27.10;50.60
2913;DHT22;1466;48.778;9.166;2023-07-20T14:52:00;26.90;50.20
2913;DHT22;1466;48.778;9.166;2023-07-20T14:54:25;26.90;50.00
2913;DHT22;1466;48.778;9.166;2023-07-20T14:56:51;26.90;50.30
2913;DHT22;1466;48.778;9.166;2023-07-20T14:59:18;27.10;50.30
2913;DHT22;1466;48.778;9.166;2023-07-20T15:01:45;27.20;50.40
2913;DHT22;1466;48.778;9.166;2023-07-20T15:04:14;27.30;49.90
2913;DHT22;1466;48.778;9.166;2023-07-20T15:06:40;27.40;50.10
2913;DHT22;1466;48.778;9.166;2023-07-20T15:09:06;27.40;49.90
2913;DHT22;1466;48.778;9.166;2023-07-20T15:11:33;27.50;50.10
2913;DHT22;1466;48.778;9.166;2023-07-20T15:13:59;27.50;49.90
2913;DHT22;1466;48.778;9.166;2023-07-20T15:16:25;27.60;50.00
2913;DHT22;1466;48.778;9.166;2023-07-20T15:18:50;27.70;49.70
2913;DHT22;1466;48.778;9.166;2023-07-20T15:21:16;27.60;50.00
2913;DHT22;1466;48.778;9.166;2023-07-20T15:23:42;27.60;49.70
2913;DHT22;1466;48.778;9.166;2023-07-20T15:26:08;27.40;49.60
2913;DHT22;1466;48.778;9.166;2023-07-20T15:28:34;27.50;49.90
2913;DHT22;1466;48.778;9.166;2023-07-20T15:31:01;27.30;49.50
2913;DHT22;1466;48.778;9.166;2023-07-20T15:33:27;27.20;49.50
2913;DHT22;1466;48.778;9.166;2023-07-20T15:35:53;27.10;49.50
2913;DHT22;1466;48.778;9.166;2023-07-20T15:38:18;27.10;49.60
2913;DHT22;1466;48.778;9.166;2023-07-20T15:40:45;26.90;49.20
2913;DHT22;1466;48.778;9.166;2023-07-20T15:43:12;27.00;49.60
2913;DHT22;1466;48.778;9.166;2023-07-20T15:45:37;27.10;49.60
2913;DHT22;1466;48.778;9.166;2023-07-20T15:48:03;27.00;50.00
2913;DHT22;1466;48.778;9.166;2023-07-20T15:50:28;27.00;50.30
2913;DHT22;1466;48.778;9.166;2023-07-20T15:52:54;27.10;50.40
2913;DHT22;1466;48.778;9.166;2023-07-20T15:55:19;27.10;50.40
2913;DHT22;1466;48.778;9.166;2023-07-20T15:57:45;27.20;50.20
2913;DHT22;1466;48.778;9.166;2023-07-20T16:00:11;27.10;50.30
2913;DHT22;1466;48.778;9.166;2023-07-20T16:02:37;27.00;50.40
2913;DHT22;1466;48.778;9.166;2023-07-20T16:05:03;27.00;50.60
2913;DHT22;1466;48.778;9.166;2023-07-20T16:07:28;26.90;50.70
2913;DHT22;1466;48.778;9.166;2023-07-20T16:09:55;27.00;51.00
2913;DHT22;1466;48.778;9.166;2023-07-20T16:12:26;27.10;50.60
2913;DHT22;1466;48.778;9.166;2023-07-20T16:14:53;27.00;50.40
2913;DHT22;1466;48.778;9.166;2023-07-20T16:17:18;27.00;50.60
2913;DHT22;1466;48.778;9.166;2023-07-20T16:19:45;26.90;50.20